createdAt,value
2023-03-12T00:00:21.334Z,1.23
2023-03-12T00:05:22.200Z,0.77
2023-03-12T00:10:23.028Z,0.98
2023-03-12T00:15:24.659Z,0.80
2023-03-12T00:20:25.669Z,0.68
2023-03-12T00:25:26.769Z,0.60
2023-03-12T00:30:28.994Z,1.20
2023-03-12T00:35:30.128Z,0.90
2023-03-12T00:40:30.939Z,1.00
2023-03-12T00:45:31.699Z,0.90
2023-03-12T00:50:33.406Z,1.05
2023-03-12T00:55:34.400Z,0.77
2023-03-12T01:00:35.345Z,0.85
2023-03-12T01:05:37.089Z,1.25
2023-03-12T01:10:41.964Z,0.80
2023-03-12T01:15:43.319Z,1.60
2023-03-12T01:20:44.745Z,1.33
2023-03-12T01:25:46.698Z,1.23
2023-03-12T01:30:47.542Z,1.10
2023-03-12T01:35:49.604Z,0.90
2023-03-12T01:40:51.124Z,0.82
2023-03-12T01:46:24.496Z,0.93
2023-03-12T01:51:34.628Z,1.50
2023-03-12T01:56:37.268Z,1.40
2023-03-12T02:01:39.847Z,1.00
2023-03-12T02:06:48.625Z,0.77
2023-03-12T02:11:49.813Z,1.45
2023-03-12T02:16:53.296Z,0.80
2023-03-12T02:21:55.019Z,0.98
2023-03-12T02:26:56.497Z,1.10
2023-03-12T02:31:59.850Z,1.08
2023-03-12T02:37:00.804Z,1.23
2023-03-12T02:42:04.456Z,1.62
2023-03-12T02:47:07.480Z,1.50
2023-03-12T02:52:09.053Z,1.20
2023-03-12T02:57:10.108Z,1.75
2023-03-12T03:02:12.227Z,1.02
2023-03-12T03:07:14.122Z,1.27
2023-03-12T03:12:15.517Z,1.30
2023-03-12T03:17:16.486Z,1.83
2023-03-12T03:22:19.260Z,1.50
2023-03-12T03:27:20.887Z,1.40
2023-03-12T03:32:21.727Z,1.10
2023-03-12T03:37:22.544Z,1.10
2023-03-12T03:42:24.178Z,1.25
2023-03-12T03:47:25.937Z,1.20
2023-03-12T03:52:26.793Z,1.75
2023-03-12T03:57:28.342Z,1.37
2023-03-12T04:02:29.737Z,1.23
2023-03-12T04:07:31.919Z,1.30
2023-03-12T04:12:32.823Z,1.30
2023-03-12T04:17:33.771Z,1.15
2023-03-12T04:22:35.825Z,1.55
2023-03-12T04:27:36.818Z,1.33
2023-03-12T04:32:38.483Z,1.20
2023-03-12T04:37:39.615Z,1.52
2023-03-12T04:42:40.574Z,1.40
2023-03-12T04:47:41.949Z,2.15
2023-03-12T04:52:43.846Z,1.27
2023-03-12T04:57:45.399Z,1.20
2023-03-12T05:02:46.570Z,2.70
2023-03-12T05:07:47.704Z,1.30
2023-03-12T05:12:49.386Z,1.30
2023-03-12T05:17:50.247Z,1.45
2023-03-12T05:22:51.650Z,2.17
2023-03-12T05:27:52.561Z,1.70
2023-03-12T05:32:53.466Z,1.80
2023-03-12T05:37:54.376Z,1.90
2023-03-12T05:42:55.680Z,1.67
2023-03-12T05:47:57.828Z,2.03
2023-03-12T05:52:59.240Z,1.87
2023-03-12T05:58:00.330Z,2.42
2023-03-12T06:03:01.627Z,2.12
2023-03-12T06:08:04.019Z,2.50
2023-03-12T06:13:06.016Z,2.70
2023-03-12T06:18:07.067Z,2.60
2023-03-12T06:23:08.809Z,2.10
2023-03-12T06:28:09.766Z,2.92
2023-03-12T06:33:10.569Z,2.70
2023-03-12T06:38:11.342Z,2.65
2023-03-12T06:43:12.277Z,3.45
2023-03-12T06:48:13.087Z,3.92
2023-03-12T06:53:14.083Z,3.55
2023-03-12T06:58:14.952Z,3.85
2023-03-12T07:03:15.910Z,3.95
2023-03-12T07:08:18.189Z,4.32
2023-03-12T07:13:19.002Z,4.37
2023-03-12T07:18:19.758Z,4.35
2023-03-12T07:23:21.516Z,4.97
2023-03-12T07:28:22.436Z,5.50
2023-03-12T07:33:23.408Z,4.80
2023-03-12T07:38:24.758Z,4.45
2023-03-12T07:43:26.431Z,4.85
2023-03-12T07:48:28.762Z,5.37
2023-03-12T07:53:29.524Z,4.97
2023-03-12T07:58:30.630Z,5.93
2023-03-12T08:03:32.255Z,5.85
2023-03-12T08:08:35.398Z,5.72
2023-03-12T08:13:36.339Z,5.97
2023-03-12T08:18:37.253Z,5.90
2023-03-12T08:23:38.008Z,5.93
2023-03-12T08:28:39.091Z,5.65
2023-03-12T08:33:42.775Z,6.93
2023-03-12T08:38:43.585Z,6.25
2023-03-12T08:43:44.369Z,5.78
2023-03-12T08:48:45.183Z,6.55
2023-03-12T08:53:46.397Z,6.40
2023-03-12T08:58:47.268Z,7.70
2023-03-12T09:03:50.236Z,7.60
2023-03-12T09:08:51.102Z,7.60
2023-03-12T09:14:26.560Z,8.90
2023-03-12T09:19:29.351Z,8.13
2023-03-12T09:24:30.148Z,9.18
2023-03-12T09:29:31.698Z,9.30
2023-03-12T09:34:32.454Z,9.48
2023-03-12T09:39:33.270Z,10.00
2023-03-12T09:44:38.041Z,10.27
2023-03-12T09:49:46.186Z,10.38
2023-03-12T09:54:56.171Z,12.15
2023-03-12T09:59:57.435Z,11.63
2023-03-12T10:05:06.455Z,12.68
2023-03-12T10:11:44.832Z,11.77
2023-03-12T10:18:02.418Z,10.98
2023-03-12T10:23:27.928Z,9.45
2023-03-12T10:28:37.062Z,11.38
2023-03-12T10:33:56.897Z,8.88
2023-03-12T10:38:57.727Z,9.02
2023-03-12T10:44:07.354Z,11.07
2023-03-12T10:49:29.343Z,8.57
2023-03-12T10:54:36.747Z,7.87
2023-03-12T10:59:43.500Z,8.38
2023-03-12T11:04:51.115Z,8.10
2023-03-12T11:10:46.025Z,9.40
2023-03-12T11:15:47.219Z,8.73
2023-03-12T11:20:52.166Z,7.30
2023-03-12T11:26:00.119Z,7.82
2023-03-12T11:31:01.674Z,8.93
2023-03-12T11:36:55.630Z,7.57
2023-03-12T11:45:16.146Z,7.35
2023-03-12T11:55:31.495Z,5.30
2023-03-12T12:00:53.059Z,5.85
2023-03-12T12:09:44.875Z,3.70
2023-03-12T12:15:01.409Z,2.55
2023-03-12T12:21:15.833Z,2.37
2023-03-12T12:26:43.353Z,2.67
2023-03-12T12:31:58.688Z,2.42
2023-03-12T12:37:49.853Z,2.55
2023-03-12T12:43:27.438Z,2.67
2023-03-12T12:48:51.998Z,2.53
2023-03-12T12:54:26.400Z,2.60
2023-03-12T12:59:34.094Z,2.83
2023-03-12T13:04:37.817Z,2.67
2023-03-12T13:09:51.460Z,3.30
2023-03-12T13:14:54.582Z,2.67
2023-03-12T13:30:04.405Z,2.90
2023-03-12T13:36:22.802Z,3.08
2023-03-12T13:41:39.354Z,2.97
2023-03-12T13:46:42.002Z,3.00
2023-03-12T13:51:46.559Z,2.78
2023-03-12T13:56:58.027Z,3.70
2023-03-12T14:02:04.846Z,3.28
2023-03-12T14:08:15.657Z,3.45
2023-03-12T14:16:42.318Z,3.67
2023-03-12T14:21:46.317Z,2.75
2023-03-12T14:26:48.042Z,3.80
2023-03-12T14:31:51.287Z,2.67
2023-03-12T14:43:26.603Z,2.70
2023-03-12T14:48:30.421Z,3.15
2023-03-12T14:53:36.567Z,2.62
2023-03-12T14:58:48.606Z,3.05
2023-03-12T15:03:57.494Z,2.50
2023-03-12T15:09:04.623Z,3.60
2023-03-12T15:14:13.944Z,3.05
2023-03-12T15:19:22.459Z,2.72
2023-03-12T15:24:24.835Z,6.05
2023-03-12T15:29:28.070Z,4.20
2023-03-12T15:34:37.695Z,4.43
2023-03-12T15:39:39.027Z,4.70
2023-03-12T15:44:54.004Z,4.95
2023-03-12T15:49:58.169Z,5.65
2023-03-12T15:56:19.982Z,4.10
2023-03-12T16:01:23.280Z,4.18
2023-03-12T16:06:27.189Z,4.25
2023-03-12T16:11:30.766Z,4.10
2023-03-12T16:16:31.754Z,5.00
2023-03-12T16:21:32.513Z,5.50
2023-03-12T16:26:35.282Z,5.80
2023-03-12T16:31:36.263Z,5.35
2023-03-12T16:36:37.542Z,4.05
2023-03-12T16:41:38.544Z,4.32
2023-03-12T16:46:39.671Z,10.73
2023-03-12T16:51:40.482Z,4.07
2023-03-12T16:56:45.319Z,3.62
2023-03-12T17:01:46.133Z,5.18
2023-03-12T17:06:47.041Z,3.40
2023-03-12T17:11:50.857Z,3.75
2023-03-12T17:16:51.827Z,4.72
2023-03-12T17:21:52.828Z,4.90
2023-03-12T17:26:54.667Z,3.67
2023-03-12T17:31:55.595Z,4.43
2023-03-12T17:36:58.272Z,4.25
2023-03-12T17:41:59.100Z,4.43
2023-03-12T17:47:03.313Z,3.55
2023-03-12T17:52:04.455Z,2.92
2023-03-12T17:57:05.470Z,3.85
2023-03-12T18:02:06.541Z,4.00
2023-03-12T18:07:07.896Z,3.83
2023-03-12T18:12:10.608Z,4.72
2023-03-12T18:17:11.403Z,5.35
2023-03-12T18:22:13.733Z,4.15
2023-03-12T18:27:14.680Z,4.50
2023-03-12T18:32:15.541Z,4.40
2023-03-12T18:37:16.381Z,4.30
2023-03-12T18:42:17.505Z,4.18
2023-03-12T18:47:18.731Z,4.22
2023-03-12T18:52:19.777Z,3.87
2023-03-12T18:57:20.725Z,3.83
2023-03-12T19:02:22.972Z,3.83
2023-03-12T19:07:23.785Z,5.82
2023-03-12T19:12:24.931Z,5.65
2023-03-12T19:17:26.045Z,4.10
2023-03-12T19:22:26.950Z,4.57
2023-03-12T19:27:29.559Z,4.93
2023-03-12T19:32:42.256Z,6.85
2023-03-12T19:42:44.837Z,6.53
2023-03-12T19:47:45.650Z,6.95
2023-03-12T19:52:47.195Z,5.55
2023-03-12T19:57:48.160Z,5.15
2023-03-12T20:02:49.313Z,5.03
2023-03-12T20:07:51.388Z,4.18
2023-03-12T20:12:52.282Z,3.65
2023-03-12T20:17:53.972Z,3.00
2023-03-12T20:22:54.753Z,4.32
2023-03-12T20:27:57.065Z,4.60
2023-03-12T20:32:58.028Z,5.12
2023-03-12T20:37:58.894Z,3.87
2023-03-12T20:43:04.148Z,3.70
2023-03-12T20:48:05.464Z,3.87
2023-03-12T20:53:09.372Z,4.57
2023-03-12T20:58:10.249Z,5.22
2023-03-12T21:03:12.813Z,4.53
2023-03-12T21:08:14.450Z,4.10
2023-03-12T21:13:17.390Z,3.47
2023-03-12T21:18:18.322Z,3.65
2023-03-12T21:23:19.348Z,3.42
2023-03-12T21:28:20.500Z,4.25
2023-03-12T21:33:22.002Z,3.70
2023-03-12T21:38:22.843Z,5.07
2023-03-12T21:43:24.968Z,3.35
2023-03-12T21:48:25.731Z,5.85
2023-03-12T21:53:26.851Z,7.78
2023-03-12T21:58:29.105Z,4.03
2023-03-12T22:03:29.842Z,5.47
2023-03-12T22:08:31.508Z,4.57
2023-03-12T22:13:32.565Z,3.87
2023-03-12T22:18:37.436Z,4.05
2023-03-12T22:23:38.357Z,3.83
2023-03-12T22:28:39.351Z,4.65
2023-03-12T22:33:40.087Z,3.78
2023-03-12T22:38:41.512Z,3.75
2023-03-12T22:43:43.033Z,7.10
2023-03-12T22:48:44.630Z,4.62
2023-03-12T22:53:45.613Z,4.60
2023-03-12T22:58:46.933Z,4.43
2023-03-12T23:03:48.910Z,4.87
2023-03-12T23:08:50.787Z,4.03
2023-03-12T23:13:52.155Z,4.62
2023-03-12T23:18:53.178Z,4.80
2023-03-12T23:23:54.077Z,4.47
2023-03-12T23:28:57.204Z,3.55
2023-03-12T23:33:57.977Z,5.05
2023-03-12T23:38:58.919Z,4.20
2023-03-12T23:43:59.727Z,4.80
2023-03-12T23:49:01.298Z,4.50
2023-03-12T23:54:04.471Z,4.47
